Time;durP1;ratioP1;P1;durP2;ratioP2;P2;SDS_P1;SDS_P2;PMS_P1;PMS_P2;Temp;Humidity;BMP_temperature;BMP_pressure;BME280_temperature;BME280_humidity;BME280_pressure;Samples;Min_cycle;Max_cycle;Signal;HPM_P1;HPM_P2
2022/01/19 00:00:50;;;;;;;0.90;0.30;;;;;;;-4.55;59.88;100328.36;1711485;82;20926;-53
2022/01/19 00:03:17;;;;;;;1.13;0.30;;;;;;;-4.62;59.96;100315.53;1713156;82;21097;-49
2022/01/19 00:05:44;;;;;;;0.97;0.30;;;;;;;-4.65;60.09;100312.40;1708355;82;21001;-48
2022/01/19 00:08:16;;;;;;;1.33;0.30;;;;;;;-4.68;60.19;100325.91;1676329;83;20911;-52
2022/01/19 00:10:39;;;;;;;3.50;0.40;;;;;;;-4.70;60.25;100333.75;1692836;82;20972;-51
2022/01/19 00:13:05;;;;;;;3.60;0.50;;;;;;;-4.71;60.33;100344.22;1696917;82;20887;-48
2022/01/19 00:15:32;;;;;;;0.90;0.20;;;;;;;-4.76;60.48;100345.41;1694735;82;21539;-50
2022/01/19 00:17:59;;;;;;;0.70;0.30;;;;;;;-4.77;60.54;100355.48;1709043;82;20918;-52
2022/01/19 00:20:28;;;;;;;1.00;0.40;;;;;;;-4.78;60.62;100362.91;1695489;82;21093;-49
2022/01/19 00:22:54;;;;;;;1.20;0.30;;;;;;;-4.81;60.73;100367.19;1694548;82;22278;-50
2022/01/19 00:25:21;;;;;;;2.27;0.30;;;;;;;-4.80;60.77;100368.96;1704380;82;21061;-51
2022/01/19 00:27:47;;;;;;;2.40;0.30;;;;;;;-4.81;60.83;100379.00;1706206;82;21121;-48
2022/01/19 00:30:14;;;;;;;0.87;0.30;;;;;;;-4.79;60.89;100375.99;1692983;82;21093;-48
2022/01/19 00:32:40;;;;;;;0.97;0.30;;;;;;;-4.80;60.92;100377.73;1690913;82;21053;-52
2022/01/19 00:35:09;;;;;;;2.60;0.20;;;;;;;-4.81;60.94;100370.70;1701925;82;21160;-52
2022/01/19 00:37:37;;;;;;;1.73;0.30;;;;;;;-4.84;61.00;100369.30;1694377;82;22061;-51
2022/01/19 00:40:06;;;;;;;0.70;0.20;;;;;;;-4.86;61.05;100368.41;1693347;82;21044;-51
2022/01/19 00:42:33;;;;;;;1.27;0.40;;;;;;;-4.86;61.11;100370.14;1705964;82;21103;-49
2022/01/19 00:44:59;;;;;;;0.77;0.20;;;;;;;-4.87;61.14;100360.06;1689956;82;21391;-51
2022/01/19 00:47:26;;;;;;;0.30;0.10;;;;;;;-4.85;61.12;100360.11;1704536;82;21088;-52
2022/01/19 00:49:54;;;;;;;1.63;0.20;;;;;;;-4.85;61.20;100362.73;1708840;82;21073;-49
2022/01/19 00:52:20;;;;;;;0.57;0.20;;;;;;;-4.86;61.22;100364.47;1708301;82;21483;-50
2022/01/19 00:54:47;;;;;;;1.57;0.20;;;;;;;-4.90;61.20;100363.92;1678313;82;21066;-52
2022/01/19 00:57:13;;;;;;;2.97;0.30;;;;;;;-4.91;61.29;100366.50;1697884;82;21065;-48
2022/01/19 00:59:40;;;;;;;1.67;0.30;;;;;;;-4.93;61.33;100379.59;1674143;83;21101;-48
2022/01/19 01:02:07;;;;;;;0.63;0.20;;;;;;;-4.94;61.41;100387.03;1699163;82;21097;-48
2022/01/19 01:04:33;;;;;;;1.60;0.30;;;;;;;-4.94;61.42;100383.52;1698527;82;21138;-51
2022/01/19 01:07:40;;;;;;;2.37;0.30;;;;;;;-4.93;61.49;100378.73;1770939;78;27251;-51
2022/01/19 01:10:08;;;;;;;1.63;0.30;;;;;;;-4.99;61.53;100382.08;1738729;80;21049;-53
2022/01/19 01:12:52;;;;;;;4.07;0.30;;;;;;;-4.98;61.59;100378.61;1706083;81;21173;-50
2022/01/19 01:15:46;;;;;;;1.63;0.40;;;;;;;-5.00;61.60;100390.80;1707757;81;21510;-49
2022/01/19 01:20:37;;;;;;;1.42;0.40;;;;;;;-5.07;61.77;100374.03;1669934;83;28691;-52
2022/01/19 01:23:05;;;;;;;0.60;0.27;;;;;;;-5.10;61.86;100391.00;1698250;82;21357;-51
2022/01/19 01:25:33;;;;;;;1.93;0.30;;;;;;;-5.13;61.92;100388.75;1703291;82;21144;-51
2022/01/19 01:27:59;;;;;;;1.70;0.30;;;;;;;-5.12;62.02;100390.53;1697380;82;21081;-53
2022/01/19 01:30:26;;;;;;;2.13;0.30;;;;;;;-5.13;62.07;100383.50;1700038;82;21073;-49
2022/01/19 01:32:52;;;;;;;0.90;0.30;;;;;;;-5.12;62.10;100378.72;1699392;82;21062;-50
2022/01/19 01:35:19;;;;;;;0.53;0.20;;;;;;;-5.13;62.14;100388.75;1703764;82;21107;-52
2022/01/19 01:37:46;;;;;;;1.53;0.30;;;;;;;-5.16;62.23;100393.48;1701356;81;21105;-49
2022/01/19 01:40:13;;;;;;;3.80;0.30;;;;;;;-5.17;62.27;100390.40;1701493;81;21667;-49
2022/01/19 01:42:41;;;;;;;0.70;0.20;;;;;;;-5.16;62.38;100388.66;1706098;81;20926;-52
2022/01/19 01:45:14;;;;;;;0.60;0.30;;;;;;;-5.15;62.31;100389.13;1683397;81;20882;-50
2022/01/19 01:47:45;;;;;;;1.03;0.20;;;;;;;-5.17;62.36;100386.46;1703849;81;21083;-52
2022/01/19 01:55:23;;;;;;;1.13;0.20;;;;;;;-5.22;62.54;100391.14;1703543;81;21524;-51
2022/01/19 01:57:50;;;;;;;1.40;0.33;;;;;;;-5.24;62.70;100379.72;1684461;81;20890;-48
2022/01/19 02:00:23;;;;;;;0.70;0.30;;;;;;;-5.22;62.67;100384.16;1682955;83;20933;-48
2022/01/19 02:02:54;;;;;;;0.67;0.20;;;;;;;-5.21;62.66;100390.30;1682436;83;21415;-52
2022/01/19 02:05:22;;;;;;;0.60;0.20;;;;;;;-5.19;62.73;100385.98;1678453;83;21473;-48
2022/01/19 02:16:15;;;;;;;0.50;0.20;;;;;;;-5.16;62.71;100384.30;1708850;81;21773;-50
2022/01/19 02:23:57;;;;;;;0.90;0.30;;;;;;;-5.16;62.72;100378.16;1674476;83;21133;-49
2022/01/19 02:26:32;;;;;;;0.70;0.30;;;;;;;-5.17;62.71;100377.70;1707926;81;21097;-51
2022/01/19 02:29:16;;;;;;;1.20;0.30;;;;;;;-5.21;62.76;100367.56;1712194;81;21055;-50
2022/01/19 02:31:52;;;;;;;0.80;0.30;;;;;;;-5.20;62.82;100364.09;1705799;81;22086;-50
2022/01/19 02:40:09;;;;;;;1.57;0.50;;;;;;;-5.28;62.94;100377.88;1676212;83;20984;-50
2022/01/19 02:42:09;;;;;;;5.77;0.60;;;;;;;-5.30;63.04;100374.32;1711897;81;21825;-49
2022/01/19 02:46:37;;;;;;;1.27;0.50;;;;;;;-5.32;63.08;100374.70;1710182;81;20954;-51
2022/01/19 02:49:51;;;;;;;2.55;0.40;;;;;;;-5.39;63.12;100380.23;1711911;81;20976;-50
2022/01/19 02:52:18;;;;;;;0.63;0.30;;;;;;;-5.41;63.26;100381.91;1709034;81;21652;-50
2022/01/19 02:54:45;;;;;;;1.07;0.30;;;;;;;-5.44;63.32;100375.27;1675635;83;21509;-50
2022/01/19 02:57:13;;;;;;;1.57;0.30;;;;;;;-5.48;63.35;100382.19;1677655;83;21888;-50
2022/01/19 03:10:23;;;;;;;1.10;0.47;;;;;;;-5.59;63.72;100377.08;1701906;82;20928;-50
2022/01/19 03:12:49;;;;;;;4.27;0.70;;;;;;;-5.61;63.82;100372.67;1702738;82;20943;-50
2022/01/19 03:15:17;;;;;;;3.27;0.67;;;;;;;-5.62;63.84;100374.40;1669511;83;20923;-50
2022/01/19 03:17:43;;;;;;;3.57;0.70;;;;;;;-5.64;63.95;100369.53;1665611;84;21155;-51
2022/01/19 03:20:10;;;;;;;4.03;0.60;;;;;;;-5.63;64.01;100370.00;1663251;84;21673;-50
2022/01/19 03:22:50;;;;;;;5.33;0.97;;;;;;;-5.63;64.08;100359.92;1662890;84;21157;-50
2022/01/19 03:25:12;;;;;;;2.77;0.60;;;;;;;-5.66;64.14;100356.80;1699363;82;21034;-50
2022/01/19 03:27:39;;;;;;;3.27;0.40;;;;;;;-5.65;64.18;100353.33;1686338;82;20938;-51
2022/01/19 03:30:08;;;;;;;1.53;0.40;;;;;;;-5.66;64.18;100341.05;1702755;82;20931;-50
2022/01/19 03:32:35;;;;;;;3.97;0.50;;;;;;;-5.70;64.25;100341.84;1703677;82;21778;-50
2022/01/19 03:35:01;;;;;;;3.07;0.40;;;;;;;-5.72;64.39;100337.86;1701321;82;21134;-50
2022/01/19 03:37:28;;;;;;;1.97;0.50;;;;;;;-5.75;64.45;100342.13;1698188;82;21086;-50
2022/01/19 03:39:55;;;;;;;1.00;0.40;;;;;;;-5.76;64.54;100348.22;1695136;82;22551;-50
2022/01/19 03:42:21;;;;;;;3.30;0.60;;;;;;;-5.78;64.64;100351.21;1701442;82;21117;-50
2022/01/19 03:44:48;;;;;;;1.20;0.50;;;;;;;-5.82;64.74;100350.27;1695666;82;21169;-50
2022/01/19 03:47:17;;;;;;;0.70;0.30;;;;;;;-5.87;64.90;100353.17;1696491;82;21120;-51
2022/01/19 03:49:44;;;;;;;3.43;0.50;;;;;;;-5.90;64.99;100358.38;1696929;82;21065;-51
2022/01/19 03:52:11;;;;;;;1.43;0.47;;;;;;;-5.91;65.13;100359.23;1700493;82;21073;-50
2022/01/19 03:54:41;;;;;;;1.83;0.40;;;;;;;-5.92;65.15;100360.48;1665686;83;21120;-50
2022/01/19 03:57:08;;;;;;;3.50;1.47;;;;;;;-5.92;65.30;100357.87;1699208;82;22768;-50
2022/01/19 03:59:36;;;;;;;0.87;0.40;;;;;;;-5.93;65.38;100358.71;1668535;84;20899;-50
2022/01/19 04:02:03;;;;;;;0.60;0.30;;;;;;;-5.92;65.38;100358.75;1660575;84;21075;-51
2022/01/19 04:04:37;;;;;;;1.20;0.50;;;;;;;-5.90;65.49;100366.67;1667827;83;21485;-50
2022/01/19 04:07:02;;;;;;;0.90;0.40;;;;;;;-5.91;65.46;100369.71;1668847;83;21084;-50
2022/01/19 04:09:28;;;;;;;1.60;0.50;;;;;;;-5.93;65.58;100379.68;1677964;83;21393;-50
2022/01/19 04:11:55;;;;;;;1.63;0.50;;;;;;;-5.93;65.68;100375.75;1676602;83;21052;-49
2022/01/19 04:14:25;;;;;;;2.43;0.50;;;;;;;-5.94;65.73;100372.66;1676142;83;20949;-50
2022/01/19 04:16:58;;;;;;;2.70;0.50;;;;;;;-5.95;65.72;100377.01;1707357;81;21846;-50
2022/01/19 04:21:57;;;;;;;3.93;0.70;;;;;;;-5.99;65.90;100377.79;1687281;81;21068;-50
2022/01/19 04:24:24;;;;;;;2.17;0.67;;;;;;;-5.99;66.00;100391.31;1708794;81;21587;-50
2022/01/19 04:29:36;;;;;;;3.80;0.70;;;;;;;-6.02;66.13;100385.55;1673183;83;20902;-50
2022/01/19 04:32:10;;;;;;;2.13;0.60;;;;;;;-6.03;66.15;100389.44;1710408;81;21104;-50
2022/01/19 04:34:32;;;;;;;6.33;0.80;;;;;;;-6.02;66.36;100388.59;1675669;83;21117;-50
2022/01/19 04:37:26;;;;;;;2.13;0.60;;;;;;;-6.00;66.41;100388.23;1679477;83;20882;-49
2022/01/19 04:45:00;;;;;;;1.20;0.50;;;;;;;-5.97;66.47;100389.63;1671255;83;21073;-50
2022/01/19 05:03:38;;;;;;;2.50;0.40;;;;;;;-6.09;67.09;100416.80;1693988;82;21069;-50
2022/01/19 05:06:03;;;;;;;1.50;0.90;;;;;;;-6.10;67.12;100422.45;1708262;81;21652;-50
2022/01/19 05:13:39;;;;;;;4.47;0.43;;;;;;;-6.09;67.37;100410.24;1698732;82;21136;-50
2022/01/19 05:16:06;;;;;;;1.23;0.50;;;;;;;-6.09;67.41;100404.58;1664957;83;21049;-50
2022/01/19 05:18:34;;;;;;;2.20;0.50;;;;;;;-6.08;67.41;100409.41;1662869;83;21100;-50
2022/01/19 05:21:00;;;;;;;0.87;0.47;;;;;;;-6.12;67.51;100401.44;1663267;84;22435;-50
2022/01/19 05:23:34;;;;;;;2.70;0.50;;;;;;;-6.11;67.55;100405.84;1663797;84;21088;-50
2022/01/19 05:26:01;;;;;;;1.57;0.40;;;;;;;-6.10;67.61;100406.73;1657370;84;22060;-50
2022/01/19 05:28:30;;;;;;;1.37;0.40;;;;;;;-6.12;67.62;100396.20;1691868;82;21522;-50
2022/01/19 05:30:57;;;;;;;2.90;0.57;;;;;;;-6.14;67.73;100395.71;1697807;82;21105;-49
2022/01/19 05:33:23;;;;;;;2.37;0.50;;;;;;;-6.13;67.86;100404.05;1696936;82;21194;-52
2022/01/19 05:35:50;;;;;;;1.93;0.60;;;;;;;-6.16;67.93;100414.42;1696742;82;21639;-50
2022/01/19 05:40:56;;;;;;;3.60;0.60;;;;;;;-6.20;68.09;100396.83;1865989;76;25915;-54
2022/01/19 05:43:23;;;;;;;1.83;0.50;;;;;;;-6.24;68.23;100408.08;1763372;79;21067;-50
2022/01/19 05:45:49;;;;;;;4.40;0.60;;;;;;;-6.20;68.30;100399.03;1757332;80;22789;-51
2022/01/19 05:48:17;;;;;;;2.83;0.53;;;;;;;-6.18;68.39;100400.38;1795119;79;20855;-51
2022/01/19 05:50:46;;;;;;;2.33;0.63;;;;;;;-6.15;68.47;100393.52;1793327;79;21684;-51
2022/01/19 05:53:16;;;;;;;2.57;0.50;;;;;;;-6.11;68.43;100395.36;1837050;77;20887;-50
2022/01/19 05:55:44;;;;;;;6.10;1.00;;;;;;;-6.05;68.53;100390.73;1833186;77;21834;-51
2022/01/19 05:58:10;;;;;;;1.97;0.60;;;;;;;-5.99;68.46;100400.07;1816474;78;21405;-51
2022/01/19 06:00:37;;;;;;;1.90;0.60;;;;;;;-5.98;68.44;100399.65;1785219;78;21856;-50
2022/01/19 06:03:04;;;;;;;3.80;0.67;;;;;;;-5.98;68.44;100389.16;1814038;77;21539;-50
2022/01/19 06:05:42;;;;;;;3.03;0.67;;;;;;;-5.95;68.46;100401.91;1687527;83;21071;-51
2022/01/19 06:08:18;;;;;;;3.60;0.70;;;;;;;-5.94;68.38;100407.63;1727769;78;20927;-51
2022/01/19 06:10:55;;;;;;;2.77;0.60;;;;;;;-5.90;68.54;100405.99;1808424;78;21092;-51
2022/01/19 06:13:23;;;;;;;5.30;0.70;;;;;;;-5.86;68.51;100405.17;1807611;77;20893;-51
2022/01/19 06:15:51;;;;;;;3.60;0.60;;;;;;;-5.81;68.60;100408.41;1807731;77;21465;-51
2022/01/19 06:18:18;;;;;;;3.63;0.70;;;;;;;-5.76;68.58;100403.28;1811326;78;21457;-50
2022/01/19 06:20:45;;;;;;;3.10;0.60;;;;;;;-5.72;68.56;100385.48;1802449;78;21468;-50
2022/01/19 06:23:13;;;;;;;4.13;1.20;;;;;;;-5.67;68.57;100393.04;1804788;77;21113;-51
2022/01/19 06:25:41;;;;;;;4.73;0.60;;;;;;;-5.62;68.59;100397.11;1809925;78;21116;-51
2022/01/19 06:28:07;;;;;;;2.30;0.63;;;;;;;-5.55;68.57;100397.73;1811658;78;21041;-51
2022/01/19 06:30:34;;;;;;;2.20;0.60;;;;;;;-5.51;68.59;100402.20;1805611;77;20958;-51
2022/01/19 06:33:01;;;;;;;3.63;0.70;;;;;;;-5.44;68.64;100403.70;1802392;78;21066;-51
2022/01/19 06:35:27;;;;;;;2.53;0.60;;;;;;;-5.39;68.52;100407.77;1808816;77;21081;-51
2022/01/19 06:38:12;;;;;;;3.10;0.70;;;;;;;-5.37;68.58;100416.58;1804303;78;21634;-51
2022/01/19 06:40:49;;;;;;;3.50;0.70;;;;;;;-5.28;68.67;100419.45;1807027;77;21528;-51
2022/01/19 06:43:16;;;;;;;1.80;0.70;;;;;;;-5.22;68.55;100423.95;1806620;78;21121;-51
2022/01/19 06:45:42;;;;;;;1.67;0.80;;;;;;;-5.20;68.66;100431.45;1812709;78;20873;-51
2022/01/19 06:48:08;;;;;;;3.93;0.67;;;;;;;-5.14;68.64;100425.03;1813330;78;21793;-51
2022/01/19 06:50:35;;;;;;;3.27;0.70;;;;;;;-5.09;68.58;100411.16;1809774;77;20950;-51
2022/01/19 06:53:02;;;;;;;4.43;0.60;;;;;;;-5.03;68.67;100409.13;1815523;78;21510;-51
2022/01/19 06:55:29;;;;;;;2.90;0.60;;;;;;;-4.96;68.55;100418.92;1815135;78;20947;-51
2022/01/19 06:57:57;;;;;;;2.07;0.60;;;;;;;-4.91;68.61;100430.84;1809348;78;21065;-52
2022/01/19 07:00:42;;;;;;;2.58;1.05;;;;;;;-4.86;68.69;100417.41;1810100;78;21116;-52
2022/01/19 07:03:13;;;;;;;2.53;0.67;;;;;;;-4.81;68.63;100421.91;1809156;78;21402;-51
2022/01/19 07:05:44;;;;;;;2.50;0.83;;;;;;;-4.75;68.70;100417.22;1810718;78;22004;-51
2022/01/19 07:08:31;;;;;;;1.90;0.67;;;;;;;-4.68;68.62;100413.45;1805853;77;21030;-51
2022/01/19 07:10:57;;;;;;;4.57;0.90;;;;;;;-4.61;68.62;100421.97;1807971;78;21071;-52
2022/01/19 07:13:24;;;;;;;1.97;0.70;;;;;;;-4.54;68.47;100414.21;1810918;78;21648;-52
2022/01/19 07:15:51;;;;;;;2.47;0.70;;;;;;;-4.50;68.51;100409.47;1808354;78;21445;-52
2022/01/19 07:18:18;;;;;;;2.57;0.73;;;;;;;-4.43;68.48;100408.78;1809062;77;21641;-52
2022/01/19 07:20:44;;;;;;;4.40;0.87;;;;;;;-4.36;68.33;100408.94;1818496;77;21029;-51
2022/01/19 07:23:11;;;;;;;6.53;0.87;;;;;;;-4.31;68.27;100405.98;1811396;78;21097;-49
2022/01/19 07:25:37;;;;;;;5.53;0.80;;;;;;;-4.25;68.17;100403.89;1814714;77;21078;-49
2022/01/19 07:28:08;;;;;;;5.13;0.87;;;;;;;-4.22;68.11;100393.45;1814085;78;21046;-50
2022/01/19 07:30:33;;;;;;;3.97;0.77;;;;;;;-4.18;68.07;100399.25;1809993;78;21039;-52
2022/01/19 07:33:02;;;;;;;2.57;0.90;;;;;;;-4.15;68.03;100396.67;1783926;78;21109;-51
2022/01/19 07:35:28;;;;;;;3.13;0.80;;;;;;;-4.09;67.95;100399.45;1813112;78;21046;-49
2022/01/19 07:37:55;;;;;;;4.33;0.70;;;;;;;-4.04;67.92;100399.52;1811706;78;21744;-50
2022/01/19 07:40:22;;;;;;;4.20;0.80;;;;;;;-3.98;67.83;100393.06;1808463;78;21550;-51
2022/01/19 07:42:51;;;;;;;4.27;0.97;;;;;;;-3.92;67.67;100391.47;1807485;77;21048;-51
2022/01/19 07:45:37;;;;;;;3.23;1.20;;;;;;;-3.87;67.56;100383.23;1761089;79;21076;-48
2022/01/19 07:48:10;;;;;;;4.77;0.70;;;;;;;-3.81;67.49;100385.08;1700579;83;21559;-49
2022/01/19 07:50:38;;;;;;;3.67;0.80;;;;;;;-3.75;67.35;100378.64;1719467;80;21139;-50
2022/01/19 07:53:15;;;;;;;3.50;0.70;;;;;;;-3.70;67.34;100381.34;1649303;85;21066;-50
2022/01/19 07:55:45;;;;;;;2.90;0.70;;;;;;;-3.68;67.12;100379.21;1730744;81;21715;-49
2022/01/19 07:58:23;;;;;;;2.70;0.73;;;;;;;-3.67;67.02;100377.47;1687548;83;21548;-51
2022/01/19 08:01:07;;;;;;;4.53;1.03;;;;;;;-3.68;67.08;100377.00;1750663;80;20934;-51
2022/01/19 08:03:47;;;;;;;4.13;0.70;;;;;;;-3.65;67.01;100367.83;1748888;81;22221;-51
2022/01/19 08:06:16;;;;;;;4.90;0.70;;;;;;;-3.62;67.04;100367.47;1751438;81;21081;-52
2022/01/19 08:08:43;;;;;;;5.17;0.90;;;;;;;-3.60;66.93;100363.56;1748058;80;21054;-51
2022/01/19 08:11:10;;;;;;;3.40;0.80;;;;;;;-3.58;66.85;100365.38;1761630;80;21471;-51
2022/01/19 08:13:38;;;;;;;3.83;0.70;;;;;;;-3.55;66.83;100354.88;1769100;80;20986;-51
2022/01/19 08:16:05;;;;;;;2.43;0.73;;;;;;;-3.51;66.74;100352.77;1761139;80;20924;-51
2022/01/19 08:18:31;;;;;;;3.43;0.70;;;;;;;-3.47;66.74;100352.37;1763833;79;20939;-51
2022/01/19 08:20:57;;;;;;;2.80;0.90;;;;;;;-3.44;66.59;100359.02;1749483;81;21096;-51
2022/01/19 08:23:26;;;;;;;4.83;0.80;;;;;;;-3.44;66.50;100359.91;1747195;81;21036;-52
2022/01/19 08:25:54;;;;;;;6.40;0.80;;;;;;;-3.40;66.33;100359.98;1750699;81;21073;-51
2022/01/19 08:28:21;;;;;;;5.10;1.00;;;;;;;-3.40;66.25;100361.29;1746601;80;21144;-51
2022/01/19 08:30:49;;;;;;;4.20;0.90;;;;;;;-3.39;66.36;100356.45;1754985;81;20961;-52
2022/01/19 08:33:17;;;;;;;2.30;0.70;;;;;;;-3.34;66.33;100353.06;1745021;81;21038;-52
2022/01/19 08:35:46;;;;;;;3.10;0.80;;;;;;;-3.30;66.23;100348.28;1747014;80;21093;-52
2022/01/19 08:38:33;;;;;;;;;;;;;;;-3.24;66.12;100349.73;1751374;81;21603;-52
2022/01/19 08:41:05;;;;;;;3.93;1.63;;;;;;;-3.17;65.88;100346.33;1714620;81;20371;-51
2022/01/19 08:43:33;;;;;;;1.73;0.60;;;;;;;-3.14;65.63;100340.20;1747785;81;20891;-51
2022/01/19 08:45:59;;;;;;;3.00;0.80;;;;;;;-3.11;65.73;100337.62;1744982;80;20910;-51
2022/01/19 08:48:28;;;;;;;2.00;0.83;;;;;;;-3.06;65.60;100335.51;1723601;82;20881;-49
2022/01/19 08:50:56;;;;;;;5.00;1.10;;;;;;;-2.96;65.69;100335.66;1731477;81;20919;-50
2022/01/19 08:53:24;;;;;;;4.70;1.20;;;;;;;-2.87;65.66;100327.89;1740275;81;21082;-51
2022/01/19 08:55:53;;;;;;;3.17;0.70;;;;;;;-2.78;65.44;100318.80;1742746;81;21153;-51
2022/01/19 08:58:19;;;;;;;5.10;0.83;;;;;;;-2.68;65.06;100330.82;1730788;82;20958;-50
2022/01/19 09:00:46;;;;;;;2.43;0.80;;;;;;;-2.61;64.78;100331.78;1728456;81;20917;-50
2022/01/19 09:03:14;;;;;;;5.13;0.90;;;;;;;-2.56;64.15;100330.12;1740118;80;21486;-50
2022/01/19 09:05:41;;;;;;;2.50;0.70;;;;;;;-2.53;64.07;100319.59;1741200;81;21105;-50
2022/01/19 09:08:08;;;;;;;2.27;0.80;;;;;;;-2.46;64.05;100316.59;1743763;81;20918;-50
2022/01/19 09:10:37;;;;;;;2.87;0.80;;;;;;;-2.39;64.03;100322.00;1714954;82;20922;-50
2022/01/19 09:13:03;;;;;;;5.30;0.90;;;;;;;-2.28;63.87;100314.20;1713512;82;20947;-50
2022/01/19 09:15:29;;;;;;;2.23;0.90;;;;;;;-2.14;63.69;100320.97;1746605;82;20958;-51
2022/01/19 09:17:57;;;;;;;1.50;0.60;;;;;;;-2.01;62.84;100317.59;1744029;82;21040;-50
2022/01/19 09:20:23;;;;;;;2.27;0.60;;;;;;;-1.91;62.62;100313.76;1744914;80;20945;-50
2022/01/19 09:22:50;;;;;;;2.33;0.60;;;;;;;-1.83;62.16;100303.28;1722984;82;20914;-50
2022/01/19 09:25:16;;;;;;;2.67;0.87;;;;;;;-1.75;61.69;100304.23;1743908;80;20882;-50
2022/01/19 09:27:42;;;;;;;2.00;0.60;;;;;;;-1.70;61.61;100305.16;1744416;80;21382;-50
2022/01/19 09:30:14;;;;;;;2.00;0.70;;;;;;;-1.62;61.61;100299.55;1715370;83;21512;-49
2022/01/19 09:32:49;;;;;;;1.83;0.70;;;;;;;-1.55;61.29;100289.48;1715644;82;20950;-50
2022/01/19 09:35:22;;;;;;;3.67;0.87;;;;;;;-1.46;61.05;100291.33;1714859;82;22372;-49
2022/01/19 09:37:43;;;;;;;2.17;0.70;;;;;;;-1.40;60.72;100290.05;1706471;83;21603;-51
2022/01/19 09:40:11;;;;;;;2.93;0.60;;;;;;;-1.39;60.25;100281.69;1712875;82;21149;-50
2022/01/19 09:42:38;;;;;;;2.70;0.77;;;;;;;-1.39;59.88;100276.41;1723937;81;21076;-49
2022/01/19 09:45:05;;;;;;;4.93;0.87;;;;;;;-1.35;59.89;100278.19;1725105;82;21100;-50
2022/01/19 09:47:31;;;;;;;3.70;0.80;;;;;;;-1.34;59.72;100274.24;1731202;81;21590;-50
2022/01/19 09:49:57;;;;;;;3.23;0.60;;;;;;;-1.29;59.70;100275.62;1726175;81;21476;-51
2022/01/19 09:52:23;;;;;;;2.50;0.60;;;;;;;-1.26;59.61;100273.86;1729163;81;21101;-50
2022/01/19 09:54:50;;;;;;;3.63;0.70;;;;;;;-1.19;59.46;100269.50;1752813;80;21583;-50
2022/01/19 09:57:16;;;;;;;3.87;0.90;;;;;;;-1.13;59.28;100268.25;1738382;81;21121;-50
2022/01/19 09:59:43;;;;;;;6.90;0.90;;;;;;;-1.06;59.08;100267.41;1754052;80;22286;-49
2022/01/19 10:02:10;;;;;;;2.87;0.80;;;;;;;-1.02;58.94;100259.93;1754793;81;21423;-50
2022/01/19 10:04:46;;;;;;;3.97;0.97;;;;;;;-0.99;58.79;100258.64;1753013;80;21331;-50
2022/01/19 10:07:23;;;;;;;7.90;1.00;;;;;;;-0.95;58.63;100260.87;1748535;80;21245;-50
2022/01/19 10:09:58;;;;;;;3.17;0.63;;;;;;;-0.93;58.77;100260.42;1728183;81;21511;-50
2022/01/19 10:18:29;;;;;;;1.47;0.60;;;;;;;-0.88;58.49;100246.82;1753214;81;21005;-49
2022/01/19 10:21:13;;;;;;;1.60;0.70;;;;;;;-0.87;58.71;100242.88;1761435;81;21797;-51
2022/01/19 10:23:48;;;;;;;2.20;0.80;;;;;;;-0.86;58.90;100236.71;1729132;81;21105;-50
2022/01/19 10:26:24;;;;;;;3.87;0.73;;;;;;;-0.80;58.69;100216.03;1759268;79;21078;-52
2022/01/19 10:29:09;;;;;;;3.23;0.83;;;;;;;-0.77;58.76;100215.58;1761183;81;21054;-51
2022/01/19 10:31:38;;;;;;;3.77;0.75;;;;;;;-0.74;58.85;100214.72;1754180;81;21094;-51
2022/01/19 10:34:19;;;;;;;2.37;0.90;;;;;;;-0.72;58.91;100212.98;1725363;82;21178;-52
2022/01/19 10:36:55;;;;;;;2.57;0.70;;;;;;;-0.69;58.81;100213.44;1725671;81;21054;-51
2022/01/19 10:39:24;;;;;;;2.13;0.70;;;;;;;-0.69;58.86;100212.12;1758503;81;21077;-52
2022/01/19 10:42:08;;;;;;;3.00;0.70;;;;;;;-0.69;58.85;100212.12;1715938;81;21089;-50
2022/01/19 10:44:37;;;;;;;;;;;;;;;-0.70;58.93;100208.59;1745217;80;21108;-51
2022/01/19 10:47:04;;;;;;;5.00;0.90;;;;;;;-0.71;59.23;100212.10;1711281;83;20478;-52
2022/01/19 10:49:56;;;;;;;4.00;0.90;;;;;;;-0.68;59.27;100220.50;1720966;82;20984;-52
2022/01/19 10:52:32;;;;;;;1.93;0.70;;;;;;;-0.65;59.44;100215.20;1713052;82;21655;-52
2022/01/19 10:54:59;;;;;;;1.70;0.60;;;;;;;-0.66;59.79;100211.67;1710068;83;21439;-52
2022/01/19 10:57:28;;;;;;;1.63;0.63;;;;;;;-0.64;60.27;100214.33;1703484;82;21073;-52
2022/01/19 11:00:22;;;;;;;2.33;0.77;;;;;;;-0.63;60.43;100215.66;1724719;81;21539;-52
2022/01/19 11:02:53;;;;;;;2.27;0.80;;;;;;;-0.61;60.63;100209.06;1727291;81;21051;-51
2022/01/19 11:05:45;;;;;;;4.37;1.00;;;;;;;-0.57;61.00;100202.89;1717879;82;21081;-51
2022/01/19 11:08:13;;;;;;;2.73;0.90;;;;;;;-0.50;61.21;100198.95;1687902;83;21115;-52
2022/01/19 11:10:39;;;;;;;2.73;0.90;;;;;;;-0.44;61.34;100194.14;1750793;80;21059;-51
2022/01/19 11:13:13;;;;;;;5.10;1.30;;;;;;;-0.42;61.48;100190.59;1764483;79;21025;-51
2022/01/19 11:15:34;;;;;;;2.10;0.90;;;;;;;-0.40;61.52;100189.28;1742037;81;21058;-53
2022/01/19 11:18:01;;;;;;;5.27;1.30;;;;;;;-0.36;61.64;100191.08;1712592;82;21049;-53
2022/01/19 11:20:28;;;;;;;3.60;0.90;;;;;;;-0.32;61.75;100195.48;1712592;82;21053;-53
2022/01/19 11:23:29;;;;;;;3.83;1.00;;;;;;;-0.23;61.99;100202.55;1716858;82;21081;-51
2022/01/19 11:26:04;;;;;;;4.43;0.90;;;;;;;-0.18;62.10;100207.44;1723836;82;22203;-52
2022/01/19 11:28:36;;;;;;;3.47;0.80;;;;;;;-0.11;62.20;100203.91;1746676;80;20973;-51
2022/01/19 11:31:06;;;;;;;3.87;0.80;;;;;;;-0.05;62.18;100201.27;1742265;80;20938;-50
2022/01/19 11:33:47;;;;;;;3.20;0.90;;;;;;;0.03;62.27;100198.19;1755465;81;20917;-50
2022/01/19 11:36:31;;;;;;;2.97;1.00;;;;;;;0.10;62.32;100177.90;1718747;82;21026;-51
2022/01/19 11:39:20;;;;;;;3.30;0.90;;;;;;;0.18;62.25;100184.08;1748319;80;21542;-54
2022/01/19 11:41:57;;;;;;;3.63;0.80;;;;;;;0.23;62.38;100175.72;1760869;80;20897;-53
2022/01/19 11:44:35;;;;;;;2.00;0.70;;;;;;;0.22;62.34;100159.38;1767505;80;21321;-50
2022/01/19 11:47:21;;;;;;;2.20;0.70;;;;;;;0.16;62.28;100142.19;1763071;80;20899;-53
2022/01/19 11:50:04;;;;;;;3.63;0.97;;;;;;;0.11;62.44;100137.31;1752101;81;20919;-51
2022/01/19 11:52:46;;;;;;;3.50;0.70;;;;;;;0.07;62.54;100125.86;1758971;79;21116;-53
2022/01/19 11:55:16;;;;;;;3.57;0.97;;;;;;;0.08;62.87;100130.28;1765861;80;21306;-53
2022/01/19 11:57:44;;;;;;;6.20;1.10;;;;;;;0.07;62.98;100124.98;1718592;81;21089;-52
2022/01/19 12:00:28;;;;;;;5.20;1.00;;;;;;;0.05;62.99;100134.67;1770599;79;20877;-53
2022/01/19 12:02:57;;;;;;;5.60;1.00;;;;;;;0.05;63.19;100136.00;1738040;82;20895;-52
2022/01/19 12:05:26;;;;;;;2.23;0.90;;;;;;;0.08;63.29;100133.37;1744014;81;21553;-53
2022/01/19 12:08:20;;;;;;;2.13;0.70;;;;;;;0.09;63.44;100123.19;1740341;81;21110;-52
2022/01/19 12:10:49;;;;;;;1.37;0.73;;;;;;;0.10;63.54;100119.66;1739714;81;21037;-53
2022/01/19 12:16:17;;;;;;;5.33;0.80;;;;;;;0.04;63.83;100123.20;1739364;80;21116;-53
2022/01/19 12:18:47;;;;;;;;;;;;;;;0.04;64.10;100119.67;1758560;81;21146;-52
2022/01/19 12:21:33;;;;;;;2.73;0.80;;;;;;;-0.01;64.31;100122.34;1754805;81;20683;-53
2022/01/19 12:24:32;;;;;;;2.87;0.80;;;;;;;-0.05;64.55;100121.44;1749354;80;21038;-54
2022/01/19 12:27:19;;;;;;;5.40;0.93;;;;;;;-0.12;64.84;100124.09;1726519;81;21547;-53
2022/01/19 12:30:06;;;;;;;2.97;1.13;;;;;;;-0.15;65.04;100128.05;1747585;81;21108;-52
2022/01/19 12:32:39;;;;;;;4.33;1.40;;;;;;;-0.18;65.31;100135.56;1749258;81;22918;-53
2022/01/19 12:35:11;;;;;;;4.47;1.33;;;;;;;-0.23;65.57;100129.80;1747779;80;21442;-52
2022/01/19 12:37:53;;;;;;;4.73;1.03;;;;;;;-0.26;65.84;100125.84;1739589;81;21592;-53
2022/01/19 12:40:35;;;;;;;5.83;1.10;;;;;;;-0.29;66.10;100124.08;1749028;81;21023;-52
2022/01/19 12:43:06;;;;;;;6.03;1.63;;;;;;;-0.33;66.29;100124.94;1759518;80;22105;-53
2022/01/19 12:45:37;;;;;;;2.80;0.93;;;;;;;-0.32;66.57;100134.64;1735165;81;21609;-53
2022/01/19 12:48:05;;;;;;;3.40;1.33;;;;;;;-0.30;66.79;100138.17;1735108;81;21035;-53
2022/01/19 12:50:47;;;;;;;5.60;1.50;;;;;;;-0.28;66.93;100140.39;1729917;81;21026;-53
2022/01/19 12:53:18;;;;;;;5.73;1.23;;;;;;;-0.26;67.04;100143.05;1738406;80;21464;-54
2022/01/19 12:55:48;;;;;;;2.57;0.90;;;;;;;-0.27;67.25;100143.48;1809193;77;21627;-54
2022/01/19 12:58:20;;;;;;;3.77;0.90;;;;;;;-0.31;67.43;100139.49;1806478;78;22237;-54
2022/01/19 13:00:49;;;;;;;2.97;1.00;;;;;;;-0.34;67.73;100137.71;1812725;78;20853;-54
2022/01/19 13:03:26;;;;;;;2.30;0.90;;;;;;;-0.36;67.92;100139.94;1808978;77;20938;-52
2022/01/19 13:05:58;;;;;;;4.07;0.90;;;;;;;-0.37;68.10;100140.81;1812148;78;21277;-53